Flight Track Log - Related Links

Times and Time Zones

All times are in EDT time to prevent confusion due to time zone crossing. See the DAL1562 flight status page for this flight to view local times or setup timezone preferences in your user account.

Time Position Orientation Groundspeed Altitude Reporting Facility
EDT Latitude Longitude Course Direction KTS MPH feet Rate Location/Type
Fri 04:01:05 PM 42.1958 -83.3572 182° South 169 194 1,900  Level FAA TRACON SMA TRACON (SMA)
Fri 04:01:25 PM 42.1767 -83.3581 182° South 211 243 2,400 1,650 Climbing FAA TRACON SMA TRACON (SMA)
Fri 04:01:45 PM 42.1600 -83.3564 176° South 233 268 3,000 2,550 Climbing FAA TRACON SMA TRACON (SMA)
Fri 04:02:05 PM 42.1317 -83.3522 174° South 249 287 4,100 2,500 Climbing FAA TRACON SMA TRACON (SMA)
Fri 04:02:21 PM 42.1142 -83.3517 179° South 256 295 4,500 1,108 Climbing Cleveland Center
Fri 04:03:10 PM 42.0603 -83.3325 165° South 270 311 5,300 1,900 Climbing Cleveland Center
Fri 04:04:21 PM 42.0192 -83.2244 117° Southeast 319 367 8,300 2,656 Climbing Cleveland Center
Fri 04:05:21 PM 42.0469 -83.0997 73° East 298 343 11,100 2,100 Climbing Cleveland Center
Fri 04:06:21 PM 42.0831 -82.9669 70° East 319 367 12,500 1,700 Climbing Cleveland Center
Fri 04:07:21 PM 42.1236 -82.8172 70° East 380 437 14,500 2,100 Climbing Cleveland Center
Fri 04:08:21 PM 42.1661 -82.6617 70° East 410 472 16,700 2,100 Climbing Cleveland Center
Fri 04:09:21 PM 42.2067 -82.5033 71° East 431 496 18,700 1,850 Climbing Cleveland Center
Fri 04:10:21 PM 42.2197 -82.3328 84° East 443 510 20,400 1,700 Climbing Cleveland Center
Fri 04:11:21 PM 42.2075 -82.1586 95° East 451 519 22,100 1,550 Climbing Cleveland Center
Fri 04:12:21 PM 42.1911 -81.9844 97° East 468 539 23,500 1,450 Climbing Cleveland Center
Fri 04:13:21 PM 42.1178 -81.8483 126° Southeast 441 507 25,000 1,400 Climbing Cleveland Center
Fri 04:14:21 PM 42.0208 -81.7403 140° Southeast 432 497 26,300 1,250 Climbing Cleveland Center
Fri 04:15:21 PM 41.9364 -81.6439 140° Southeast 443 510 27,500 1,400 Climbing Cleveland Center
Fri 04:16:21 PM 41.8433 -81.5364 139° Southeast 450 518 29,100 1,450 Climbing Cleveland Center
Fri 04:17:21 PM 41.7506 -81.4292 139° Southeast 450 518 30,400 950 Climbing Cleveland Center
Fri 04:18:21 PM 41.6594 -81.3225 139° Southeast 445 512 31,000 300 Climbing Cleveland Center
Fri 04:19:21 PM 41.5600 -81.2075 139° Southeast 440 506 31,000  Level Cleveland Center
Fri 04:20:21 PM 41.4689 -81.0958 137° Southeast 440 506 31,000  Level Cleveland Center
Fri 04:21:21 PM 41.3819 -80.9733 133° Southeast 445 512 31,000  Level Cleveland Center
Fri 04:22:21 PM 41.2967 -80.8539 134° Southeast 445 512 31,000  Level Cleveland Center
Fri 04:23:21 PM 41.2158 -80.7322 131° Southeast 444 511 31,000  Level Cleveland Center
Fri 04:24:21 PM 41.1553 -80.5775 117° Southeast 462 532 31,000  Level Cleveland Center
Fri 04:25:21 PM 41.1114 -80.4289 111° Southeast 467 537 31,000  Level Cleveland Center
Fri 04:26:21 PM 41.0589 -80.2636 113° Southeast 477 549 31,000  Level Cleveland Center
Fri 04:27:21 PM 41.0064 -80.0961 113° Southeast 482 555 31,000  Level Cleveland Center
Fri 04:28:21 PM 40.9556 -79.9314 112° Southeast 487 560 31,000  Level Cleveland Center
Fri 04:29:21 PM 40.9044 -79.7672 112° Southeast 487 560 31,000  Level Cleveland Center
Fri 04:30:21 PM 40.8508 -79.6031 113° Southeast 482 555 31,000  Level Cleveland Center
Fri 04:31:21 PM 40.7994 -79.4394 112° Southeast 482 555 31,000  Level Cleveland Center
Fri 04:32:21 PM 40.7475 -79.2758 113° Southeast 482 555 31,000  Level Cleveland Center
Fri 04:33:21 PM 40.6914 -79.1100 114° Southeast 482 555 31,000  Level Cleveland Center
Fri 04:34:21 PM 40.6306 -78.9306 114° Southeast 477 549 31,000  Level Cleveland Center
Fri 04:35:21 PM 40.5847 -78.7869 113° Southeast 477 549 31,000  Level Cleveland Center
Fri 04:36:21 PM 40.5319 -78.6244 113° Southeast 477 549 31,000 -450 Level Cleveland Center
Fri 04:37:21 PM 40.4769 -78.4650 114° Southeast 477 549 30,100 -1,406 Descending Cleveland Center
Fri 04:38:29 PM 40.4133 -78.2681 113° Southeast 490 564 28,000 -1,860 Descending New York Center
Fri 04:39:30 PM 40.3569 -78.1039 114° Southeast 490 564 26,100 -1,800 Descending New York Center
Fri 04:40:29 PM 40.3108 -77.9356 110° East 490 564 24,400 -1,261 Descending New York Center
Fri 04:41:29 PM 40.3072 -77.7528 91° East 490 564 23,600 -1,041 Descending New York Center
Fri 04:42:30 PM 40.3078 -77.5650 90° East 502 578 22,300 -1,140 Descending New York Center
Fri 04:43:30 PM 40.3056 -77.3825 91° East 502 578 21,300 -1,026 Descending New York Center
Fri 04:44:27 PM 40.3022 -77.2186 91° East 502 578 20,300 -966 Descending New York Center
Fri 04:45:28 PM 40.2908 -77.0408 95° East 495 570 19,400 -843 Descending New York Center
Fri 04:46:28 PM 40.2558 -76.8744 105° East 477 549 18,600 -1,328 Descending New York Center
Fri 04:47:30 PM 40.2147 -76.6994 107° East 468 539 16,700 -1,869 Descending New York Center
Fri 04:48:30 PM 40.1764 -76.5439 108° East 447 514 14,800 -1,475 Descending New York Center
Fri 04:49:28 PM 40.1456 -76.4083 107° East 441 507 13,800 -1,026 Descending New York Center
Fri 04:49:46 PM 40.1311 -76.3483 107° East 430 495 13,500 -1,105 Descending FAA TRACON SMA TRACON (SMA)
Fri 04:50:06 PM 40.1217 -76.3033 105° East 411 473 13,100 -1,200 Descending FAA TRACON SMA TRACON (SMA)
Fri 04:50:26 PM 40.1164 -76.2478 97° East 395 455 12,700 -1,200 Descending FAA TRACON SMA TRACON (SMA)
Fri 04:50:46 PM 40.1125 -76.2056 97° East 388 447 12,300 -1,350 Descending FAA TRACON SMA TRACON (SMA)
Fri 04:51:06 PM 40.1100 -76.1631 94° East 380 437 11,800 -1,350 Descending FAA TRACON SMA TRACON (SMA)
Fri 04:51:26 PM 40.1061 -76.1122 96° East 368 423 11,400 -1,200 Descending FAA TRACON SMA TRACON (SMA)
Fri 04:51:46 PM 40.1036 -76.0731 95° East 353 406 11,000 -1,050 Descending FAA TRACON SMA TRACON (SMA)
Fri 04:52:06 PM 40.1022 -76.0361 93° East 350 403 10,700 -900 Descending FAA TRACON SMA TRACON (SMA)
Fri 04:52:26 PM 40.0983 -75.9981 98° East 335 386 10,400 -1,350 Descending FAA TRACON SMA TRACON (SMA)
Fri 04:52:46 PM 40.0953 -75.9531 95° East 326 375 9,800 -1,500 Descending FAA TRACON SMA TRACON (SMA)
Fri 04:53:06 PM 40.0931 -75.9172 95° East 321 369 9,400 -1,317 Descending FAA TRACON SMA TRACON (SMA)
Fri 04:53:27 PM 40.0903 -75.8733 95° East 318 366 8,900 -878 Descending FAA TRACON SMA TRACON (SMA)
Fri 04:53:47 PM 40.0875 -75.8392 96° East 312 359 8,800 -750 Descending FAA TRACON SMA TRACON (SMA)
Fri 04:54:07 PM 40.0853 -75.8047 95° East 307 353 8,400 -1,350 Descending FAA TRACON SMA TRACON (SMA)
Fri 04:54:27 PM 40.0825 -75.7644 95° East 301 346 7,900 -1,500 Descending FAA TRACON SMA TRACON (SMA)
Fri 04:54:47 PM 40.0806 -75.7306 94° East 299 344 7,400 -1,500 Descending FAA TRACON SMA TRACON (SMA)
Fri 04:55:07 PM 40.0783 -75.6975 95° East 299 344 6,900 -1,500 Descending FAA TRACON SMA TRACON (SMA)
Fri 04:55:27 PM 40.0769 -75.6547 92° East 304 350 6,400 -1,200 Descending FAA TRACON SMA TRACON (SMA)
Fri 04:55:47 PM 40.0758 -75.6219 93° East 308 354 6,100 -600 Descending FAA TRACON SMA TRACON (SMA)
Fri 04:56:07 PM 40.0742 -75.5842 93° East 310 357 6,000 -150 Descending FAA TRACON SMA TRACON (SMA)
Fri 04:56:27 PM 40.0722 -75.5428 93° East 305 351 6,000  Level FAA TRACON SMA TRACON (SMA)
Fri 04:56:47 PM 40.0708 -75.5089 93° East 304 350 6,000  Level FAA TRACON SMA TRACON (SMA)
Fri 04:57:06 PM 40.0689 -75.4753 94° East 302 348 6,000  Level FAA TRACON SMA TRACON (SMA)
Fri 04:57:26 PM 40.0633 -75.4425 102° East 308 354 6,000  Level FAA TRACON SMA TRACON (SMA)
Fri 04:57:46 PM 40.0431 -75.4139 133° Southeast 299 344 6,000  Level FAA TRACON SMA TRACON (SMA)
Fri 04:58:06 PM 40.0189 -75.4050 164° South 282 325 6,000  Level FAA TRACON SMA TRACON (SMA)
Fri 04:58:26 PM 39.9950 -75.3989 169° South 281 323 6,000  Level FAA TRACON SMA TRACON (SMA)
Fri 04:58:46 PM 39.9658 -75.3911 168° South 276 318 6,000  Level FAA TRACON SMA TRACON (SMA)
Fri 04:59:06 PM 39.9458 -75.3969 193° South 231 266 6,000  Level FAA TRACON SMA TRACON (SMA)
Fri 04:59:26 PM 39.9333 -75.4094 217° Southwest 193 222 6,000  Level FAA TRACON SMA TRACON (SMA)
Fri 04:59:46 PM 39.9236 -75.4342 243° Southwest 184 212 6,000 -750 Level FAA TRACON SMA TRACON (SMA)
Fri 05:00:06 PM 39.9192 -75.4539 254° West 182 209 5,500 -1,500 Descending FAA TRACON SMA TRACON (SMA)
Fri 05:00:26 PM 39.9139 -75.4731 250° West 185 213 5,000 -1,650 Descending FAA TRACON SMA TRACON (SMA)
Fri 05:00:46 PM 39.9075 -75.4978 251° West 185 213 4,400 -1,350 Descending FAA TRACON SMA TRACON (SMA)
Fri 05:01:06 PM 39.9025 -75.5175 252° West 185 213 4,100 -600 Descending FAA TRACON SMA TRACON (SMA)
Fri 05:01:26 PM 39.8925 -75.5322 228° Southwest 196 226 4,000 -150 Descending FAA TRACON SMA TRACON (SMA)
Fri 05:01:46 PM 39.8714 -75.5294 174° South 214 246 4,000 -450 Level FAA TRACON SMA TRACON (SMA)
Fri 05:02:06 PM 39.8547 -75.5231 164° South 201 231 3,700 -900 Descending FAA TRACON SMA TRACON (SMA)
Fri 05:02:26 PM 39.8381 -75.5164 163° South 203 234 3,400 -1,050 Descending FAA TRACON SMA TRACON (SMA)
Fri 05:02:46 PM 39.8256 -75.4944 127° Southeast 210 242 3,000 -1,050 Descending FAA TRACON SMA TRACON (SMA)
Fri 05:03:06 PM 39.8217 -75.4719 103° East 203 234 2,700 -1,050 Descending FAA TRACON SMA TRACON (SMA)
Fri 05:03:26 PM 39.8256 -75.4500 77° East 209 241 2,300 -1,200 Descending FAA TRACON SMA TRACON (SMA)
Fri 05:03:46 PM 39.8303 -75.4231 77° East 199 229 1,900 -750 Descending FAA TRACON SMA TRACON (SMA)
Fri 05:04:06 PM 39.8353 -75.4014 73° East 191 220 1,800 -150 Descending FAA TRACON SMA TRACON (SMA)
Fri 05:04:26 PM 39.8389 -75.3831 76° East 186 214 1,800 -600 Level FAA TRACON SMA TRACON (SMA)
Fri 05:04:46 PM 39.8439 -75.3594 75° East 183 211 1,400 -1,050 Descending FAA TRACON SMA TRACON (SMA)
Fri 05:05:06 PM 39.8478 -75.3400 75° East 176 203 1,100 -750 Descending FAA TRACON SMA TRACON (SMA)
Fri 05:05:26 PM 39.8506 -75.3261 75° East 138 159 900 -750 Descending FAA TRACON SMA TRACON (SMA)
Fri 05:05:46 PM 39.8542 -75.3081 75° East 133 153 600 -750 Descending FAA TRACON SMA TRACON (SMA)
Fri 05:06:06 PM 39.8569 -75.2933 76° East 135 155 400 -600 Descending FAA TRACON SMA TRACON (SMA)
Fri 05:06:26 PM 39.8594 -75.2819 74° East 136 157 200 -300 Descending FAA TRACON SMA TRACON (SMA)
Fri 05:06:46 PM 39.8594 -75.2819 322° Northwest 136 157 200  Level FAA TRACON SMA TRACON (SMA)

Login

Don't have an account? Register now (free) for customized features, flight alerts, and more!